Patriot — WDC2859 — position and weather

sailwx.info

Track history (hours):
 
Tides and Currents Weather Stations Pressure Air Temp Water Temp Dewpoint Dewpoint Depression Visibility Wind Speed Wind Dir Waves Ship Positions

Patriot

Owner: AMNAV Maritime Corporation, Oakland, CA. More information available from US FCC via Universal Licensing System and Coast Guard Vessel Documentation Center.

Last reported at 2015-Jul-28 02:34 UTC. Time now 2015-Jul-28 03:29 UTC.
Position N 37°49' W 122°19'.

Length 31 m; draft 4.6 m.

Type: Tug. MMSI: 366998680.

Date/timePositionNaut miles runAvg speedWind from/ knotsBaromVisibWave heightAir tempDewpointWater temp
2015-Jul-28 02:34N 37°49' W 122°19'0 0.0
2015-Jul-28 01:33N 37°49' W 122°19'0 0.0
2015-Jul-28 00:33N 37°49' W 122°19'0 0.0
2015-Jul-27 23:33N 37°49' W 122°19'0 0.0
2015-Jul-27 22:33N 37°49' W 122°19'0 0.0
2015-Jul-27 21:33N 37°49' W 122°19'0 0.0
2015-Jul-27 20:33N 37°49' W 122°19'0 0.0
2015-Jul-27 19:33N 37°49' W 122°19'0 0.0
2015-Jul-27 18:33N 37°49' W 122°19'0 0.0
2015-Jul-27 17:33N 37°49' W 122°19'0 0.0
2015-Jul-27 16:33N 37°49' W 122°19'0 0.0
2015-Jul-27 15:33N 37°49' W 122°19'4 3.5
2015-Jul-27 14:33N 37°51' W 122°23'5 4.9
2015-Jul-27 13:34N 37°55' W 122°25'1 0.9
2015-Jul-27 12:34N 37°55' W 122°25'5 5.0
2015-Jul-27 11:34N 37°50' W 122°22'2 2.4
2015-Jul-27 10:34N 37°48' W 122°20'1 1.4
2015-Jul-27 09:34N 37°49' W 122°19'0 0.2
2015-Jul-27 08:33N 37°49' W 122°19'0 0.0
2015-Jul-27 07:33N 37°49' W 122°19'0 0.0
2015-Jul-27 06:33N 37°49' W 122°19'2 1.6
2015-Jul-27 05:33N 37°48' W 122°20'3 2.9
2015-Jul-27 04:33N 37°48' W 122°17'2 1.6
2015-Jul-27 03:33N 37°48' W 122°19'2 1.6
2015-Jul-27 02:33N 37°49' W 122°19'0 0.0
2015-Jul-27 01:33N 37°49' W 122°19'0 0.0
2015-Jul-27 00:33N 37°49' W 122°19'0 0.0
2015-Jul-26 23:33N 37°49' W 122°19'0 0.0
2015-Jul-26 22:33N 37°49' W 122°19'0 0.0
2015-Jul-26 21:33N 37°49' W 122°19'0 0.0
2015-Jul-26 20:33N 37°49' W 122°19'0 0.0
2015-Jul-26 19:33N 37°49' W 122°19'0 0.0
2015-Jul-26 18:33N 37°49' W 122°19'0 0.0
2015-Jul-26 17:33N 37°49' W 122°19'0 0.0
2015-Jul-26 16:33N 37°49' W 122°19'0 0.0
2015-Jul-26 15:33N 37°49' W 122°19'0 0.0
2015-Jul-26 14:33N 37°49' W 122°19'0 0.0
2015-Jul-26 13:33N 37°49' W 122°19'0 0.0
2015-Jul-26 12:33N 37°49' W 122°19'0 0.0
2015-Jul-26 11:33N 37°49' W 122°19'0 0.0
2015-Jul-26 10:33N 37°49' W 122°19'0 0.0
2015-Jul-26 09:33N 37°49' W 122°19'0 0.0
2015-Jul-26 08:33N 37°49' W 122°19'0 0.0
2015-Jul-26 07:33N 37°49' W 122°19'0 0.0
2015-Jul-26 06:33N 37°49' W 122°19'0 0.0
2015-Jul-26 05:33N 37°49' W 122°19'0 0.0
2015-Jul-26 04:33N 37°49' W 122°19'0 0.0
2015-Jul-26 03:33N 37°49' W 122°19'0 0.0
2015-Jul-26 02:33N 37°49' W 122°19'0 0.0
2015-Jul-26 01:33N 37°49' W 122°19'0 0.0
2015-Jul-26 00:33N 37°49' W 122°19'0 0.0
2015-Jul-25 23:34N 37°49' W 122°19'1 0.9
2015-Jul-25 22:33N 37°49' W 122°19'5 4.5
2015-Jul-25 21:33N 37°49' W 122°25'0 0.5
2015-Jul-25 20:33N 37°49' W 122°25'1 1.4
2015-Jul-25 19:33N 37°49' W 122°23'6 6.2
2015-Jul-25 18:34N 37°49' W 122°31'4 4.3
2015-Jul-25 17:33N 37°49' W 122°25'0 0.2
2015-Jul-25 16:33N 37°49' W 122°25'0 0.5
2015-Jul-25 15:33N 37°49' W 122°24'4 3.9
2015-Jul-25 14:33N 37°49' W 122°19'0 0.2
2015-Jul-25 13:33N 37°49' W 122°20'1 0.9
2015-Jul-25 12:33N 37°48' W 122°21'2 1.8
2015-Jul-25 11:33N 37°49' W 122°19'0 0.0
2015-Jul-25 10:33N 37°49' W 122°19'0 0.0
2015-Jul-25 09:33N 37°49' W 122°19'0 0.0
2015-Jul-25 08:33N 37°49' W 122°19'0 0.0
2015-Jul-25 07:33N 37°49' W 122°19'0 0.0
2015-Jul-25 06:33N 37°49' W 122°19'0 0.0
2015-Jul-25 05:33N 37°49' W 122°19'0 0.0
2015-Jul-25 04:33N 37°49' W 122°19'0 0.0
2015-Jul-25 03:33N 37°49' W 122°19'0 0.0
2015-Jul-25 02:33N 37°49' W 122°19'0 0.0
2015-Jul-25 01:33N 37°49' W 122°19'0 0.2
2015-Jul-25 00:33N 37°49' W 122°19'1 1.3
2015-Jul-24 23:33N 37°49' W 122°20'1 1.5
2015-Jul-24 22:34N 37°49' W 122°19'0 0.0
2015-Jul-24 21:33N 37°49' W 122°19'0 0.0
2015-Jul-24 20:33N 37°49' W 122°19'0 0.0
2015-Jul-24 19:33N 37°49' W 122°19'0 0.0
2015-Jul-24 18:33N 37°49' W 122°19'0 0.0
2015-Jul-24 17:33N 37°49' W 122°19'5 4.6
2015-Jul-24 16:33N 37°52' W 122°24'9 9.0
2015-Jul-24 15:31N 38°01' W 122°23'8 2.5
2015-Jul-24 12:06N 38°04' W 122°13'610.1
2015-Jul-24 11:33N 38°02' W 122°20'9 8.6
2015-Jul-24 10:33N 37°54' W 122°24'0 0.4
2015-Jul-24 09:33N 37°54' W 122°23'0 0.0
2015-Jul-24 08:33N 37°54' W 122°23'0 0.0
2015-Jul-24 07:33N 37°54' W 122°23'0 0.0
2015-Jul-24 06:33N 37°54' W 122°23'0 0.0
2015-Jul-24 05:33N 37°54' W 122°23'0 0.0
2015-Jul-24 04:33N 37°54' W 122°23'0 0.0
2015-Jul-24 03:33N 37°54' W 122°23'0 0.0
2015-Jul-24 02:33N 37°54' W 122°23'1 1.1
2015-Jul-24 01:33N 37°54' W 122°22'3 2.8
2015-Jul-24 00:33N 37°54' W 122°25'3 2.8
2015-Jul-23 23:33N 37°54' W 122°22'0 0.1
2015-Jul-23 22:33N 37°55' W 122°22'1 1.0
2015-Jul-23 21:33N 37°54' W 122°23'0 0.0
2015-Jul-23 20:33N 37°54' W 122°23'0 0.0
2015-Jul-23 19:33N 37°54' W 122°23'0 0.0
2015-Jul-23 18:33N 37°54' W 122°23'0 0.0
2015-Jul-23 17:33N 37°54' W 122°23'1 1.4
2015-Jul-23 16:33N 37°55' W 122°25'3 2.5
2015-Jul-23 15:33N 37°53' W 122°24'5 5.4
2015-Jul-23 14:33N 37°49' W 122°19'3 2.9
2015-Jul-23 13:33N 37°47' W 122°23'1 0.8
2015-Jul-23 12:33N 37°48' W 122°22'1 1.4
2015-Jul-23 11:33N 37°49' W 122°20'0 0.2
2015-Jul-23 10:33N 37°49' W 122°20'1 1.3
2015-Jul-23 09:33N 37°49' W 122°19'0 0.0
2015-Jul-23 08:33N 37°49' W 122°19'0 0.0
2015-Jul-23 07:33N 37°49' W 122°19'0 0.0
2015-Jul-23 06:33N 37°49' W 122°19'0 0.0
2015-Jul-23 05:33N 37°49' W 122°19'0 0.0
2015-Jul-23 04:33N 37°49' W 122°19'0 0.0
2015-Jul-23 03:33N 37°49' W 122°19'0 0.0
2015-Jul-23 02:33N 37°49' W 122°19'0 0.0
2015-Jul-23 01:33N 37°49' W 122°19'0 0.4
2015-Jul-23 00:33N 37°49' W 122°19'0 0.4
2015-Jul-22 23:33N 37°49' W 122°19'0 0.0
2015-Jul-22 22:34N 37°49' W 122°19'0 0.0
2015-Jul-22 21:33N 37°49' W 122°19'0 0.0
2015-Jul-22 20:34N 37°49' W 122°19'0 0.0
2015-Jul-22 19:34N 37°49' W 122°19'0 0.0
2015-Jul-22 18:33N 37°49' W 122°19'0 0.0
2015-Jul-22 17:34N 37°49' W 122°19'0 0.0
2015-Jul-22 16:34N 37°49' W 122°19'0 0.0
2015-Jul-22 15:33N 37°49' W 122°19'2 1.7
2015-Jul-22 14:34N 37°48' W 122°19'1 1.1
2015-Jul-22 13:34N 37°48' W 122°17'1 0.6
2015-Jul-22 12:34N 37°48' W 122°18'1 0.9
2015-Jul-22 11:33N 37°48' W 122°19'2 1.6
2015-Jul-22 10:33N 37°49' W 122°19'0 0.0
2015-Jul-22 09:33N 37°49' W 122°19'0 0.0
2015-Jul-22 08:33N 37°49' W 122°19'0 0.0
2015-Jul-22 07:33N 37°49' W 122°19'4 4.4
2015-Jul-22 06:33N 37°52' W 122°23'9 9.4
2015-Jul-22 05:34N 38°01' W 122°23'8 8.5
2015-Jul-22 04:34N 38°03' W 122°13'0 0.0
2015-Jul-22 03:33N 38°03' W 122°13'1 0.7
2015-Jul-22 02:33N 38°04' W 122°14'1 0.1
2015-Jul-21 19:23N 38°04' W 122°13'1 0.2
2015-Jul-21 13:18N 38°03' W 122°15'0 0.0
2015-Jul-21 12:33N 38°03' W 122°15'0 0.0
2015-Jul-21 11:34N 38°03' W 122°15'0 0.0
2015-Jul-21 10:29N 38°03' W 122°15'0 0.0
2015-Jul-21 09:33N 38°03' W 122°15'1 1.3
2015-Jul-21 08:33N 38°04' W 122°13'1111.0
2015-Jul-21 07:33N 37°59' W 122°25'1110.6
2015-Jul-21 06:34N 37°49' W 122°21'2 2.1
2015-Jul-21 05:34N 37°49' W 122°19'0 0.0
2015-Jul-21 04:33N 37°49' W 122°19'0 0.0
2015-Jul-21 03:34N 37°49' W 122°19'1 1.0
2015-Jul-21 02:33N 37°49' W 122°20'1 1.0
2015-Jul-21 01:34N 37°49' W 122°19'0 0.0
2015-Jul-21 00:34N 37°49' W 122°19'2 1.8
2015-Jul-20 23:34N 37°48' W 122°18'2 1.8
2015-Jul-20 22:33N 37°48' W 122°20'2 1.7
2015-Jul-20 21:34N 37°49' W 122°19'0 0.0
2015-Jul-20 20:33N 37°49' W 122°19'0 0.0
2015-Jul-20 19:33N 37°49' W 122°19'0 0.0
2015-Jul-20 18:33N 37°49' W 122°19'0 0.0
2015-Jul-20 17:33N 37°49' W 122°19'0 0.0
2015-Jul-20 16:33N 37°49' W 122°19'0 0.0
2015-Jul-20 15:33N 37°49' W 122°19'0 0.0
2015-Jul-20 14:34N 37°49' W 122°19'0 0.0
2015-Jul-20 13:33N 37°49' W 122°19'0 0.0
2015-Jul-20 12:33N 37°49' W 122°19'0 0.0
2015-Jul-20 11:33N 37°49' W 122°19'0 0.0
2015-Jul-20 10:34N 37°49' W 122°19'0 0.0
2015-Jul-20 09:34N 37°49' W 122°19'0 0.0
2015-Jul-20 08:33N 37°49' W 122°19'0 0.0
2015-Jul-20 07:33N 37°49' W 122°19'0 0.0
2015-Jul-20 06:33N 37°49' W 122°19'0 0.0
2015-Jul-20 05:33N 37°49' W 122°19'0 0.0
2015-Jul-20 04:33N 37°49' W 122°19'0 0.0
2015-Jul-20 03:33N 37°49' W 122°19'0 0.0
2015-Jul-20 02:33N 37°49' W 122°19'2 2.0
2015-Jul-20 01:34N 37°49' W 122°21'5 5.4
2015-Jul-20 00:34N 37°54' W 122°22'2 2.2
2015-Jul-19 23:34N 37°55' W 122°24'0 0.4
2015-Jul-19 22:33N 37°55' W 122°25'9 8.1
2015-Jul-19 21:27N 38°03' W 122°19'8 0.8
2015-Jul-19 11:25N 38°02' W 122°08'  
Track history (hours):
 
Tides and Currents Weather Stations Pressure Air Temp Water Temp Dewpoint Dewpoint Depression Visibility Wind Speed Wind Dir Waves Ship Positions

Patriot

Owner: AMNAV Maritime Corporation, Oakland, CA. More information available from US FCC via Universal Licensing System and Coast Guard Vessel Documentation Center.

Last reported at 2015-Jul-28 02:34 UTC. Time now 2015-Jul-28 03:29 UTC.
Position N 37°49' W 122°19'.

Length 31 m; draft 4.6 m.

Type: Tug. MMSI: 366998680.

Date/timePositionNaut miles runAvg speedWind from/ knotsBaromVisibWave heightAir tempDewpointWater temp
2015-Jul-28 02:34N 37°49' W 122°19'0 0.0
2015-Jul-28 01:33N 37°49' W 122°19'0 0.0
2015-Jul-28 00:33N 37°49' W 122°19'0 0.0
2015-Jul-27 23:33N 37°49' W 122°19'0 0.0
2015-Jul-27 22:33N 37°49' W 122°19'0 0.0
2015-Jul-27 21:33N 37°49' W 122°19'0 0.0
2015-Jul-27 20:33N 37°49' W 122°19'0 0.0
2015-Jul-27 19:33N 37°49' W 122°19'0 0.0
2015-Jul-27 18:33N 37°49' W 122°19'0 0.0
2015-Jul-27 17:33N 37°49' W 122°19'0 0.0
2015-Jul-27 16:33N 37°49' W 122°19'0 0.0
2015-Jul-27 15:33N 37°49' W 122°19'4 3.5
2015-Jul-27 14:33N 37°51' W 122°23'5 4.9
2015-Jul-27 13:34N 37°55' W 122°25'1 0.9
2015-Jul-27 12:34N 37°55' W 122°25'5 5.0
2015-Jul-27 11:34N 37°50' W 122°22'2 2.4
2015-Jul-27 10:34N 37°48' W 122°20'1 1.4
2015-Jul-27 09:34N 37°49' W 122°19'0 0.2
2015-Jul-27 08:33N 37°49' W 122°19'0 0.0
2015-Jul-27 07:33N 37°49' W 122°19'0 0.0
2015-Jul-27 06:33N 37°49' W 122°19'2 1.6
2015-Jul-27 05:33N 37°48' W 122°20'3 2.9
2015-Jul-27 04:33N 37°48' W 122°17'2 1.6
2015-Jul-27 03:33N 37°48' W 122°19'2 1.6
2015-Jul-27 02:33N 37°49' W 122°19'0 0.0
2015-Jul-27 01:33N 37°49' W 122°19'0 0.0
2015-Jul-27 00:33N 37°49' W 122°19'0 0.0
2015-Jul-26 23:33N 37°49' W 122°19'0 0.0
2015-Jul-26 22:33N 37°49' W 122°19'0 0.0
2015-Jul-26 21:33N 37°49' W 122°19'0 0.0
2015-Jul-26 20:33N 37°49' W 122°19'0 0.0
2015-Jul-26 19:33N 37°49' W 122°19'0 0.0
2015-Jul-26 18:33N 37°49' W 122°19'0 0.0
2015-Jul-26 17:33N 37°49' W 122°19'0 0.0
2015-Jul-26 16:33N 37°49' W 122°19'0 0.0
2015-Jul-26 15:33N 37°49' W 122°19'0 0.0
2015-Jul-26 14:33N 37°49' W 122°19'0 0.0
2015-Jul-26 13:33N 37°49' W 122°19'0 0.0
2015-Jul-26 12:33N 37°49' W 122°19'0 0.0
2015-Jul-26 11:33N 37°49' W 122°19'0 0.0
2015-Jul-26 10:33N 37°49' W 122°19'0 0.0
2015-Jul-26 09:33N 37°49' W 122°19'0 0.0
2015-Jul-26 08:33N 37°49' W 122°19'0 0.0
2015-Jul-26 07:33N 37°49' W 122°19'0 0.0
2015-Jul-26 06:33N 37°49' W 122°19'0 0.0
2015-Jul-26 05:33N 37°49' W 122°19'0 0.0
2015-Jul-26 04:33N 37°49' W 122°19'0 0.0
2015-Jul-26 03:33N 37°49' W 122°19'0 0.0
2015-Jul-26 02:33N 37°49' W 122°19'0 0.0
2015-Jul-26 01:33N 37°49' W 122°19'0 0.0
2015-Jul-26 00:33N 37°49' W 122°19'0 0.0
2015-Jul-25 23:34N 37°49' W 122°19'1 0.9
2015-Jul-25 22:33N 37°49' W 122°19'5 4.5
2015-Jul-25 21:33N 37°49' W 122°25'0 0.5
2015-Jul-25 20:33N 37°49' W 122°25'1 1.4
2015-Jul-25 19:33N 37°49' W 122°23'6 6.2
2015-Jul-25 18:34N 37°49' W 122°31'4 4.3
2015-Jul-25 17:33N 37°49' W 122°25'0 0.2
2015-Jul-25 16:33N 37°49' W 122°25'0 0.5
2015-Jul-25 15:33N 37°49' W 122°24'4 3.9
2015-Jul-25 14:33N 37°49' W 122°19'0 0.2
2015-Jul-25 13:33N 37°49' W 122°20'1 0.9
2015-Jul-25 12:33N 37°48' W 122°21'2 1.8
2015-Jul-25 11:33N 37°49' W 122°19'0 0.0
2015-Jul-25 10:33N 37°49' W 122°19'0 0.0
2015-Jul-25 09:33N 37°49' W 122°19'0 0.0
2015-Jul-25 08:33N 37°49' W 122°19'0 0.0
2015-Jul-25 07:33N 37°49' W 122°19'0 0.0
2015-Jul-25 06:33N 37°49' W 122°19'0 0.0
2015-Jul-25 05:33N 37°49' W 122°19'0 0.0
2015-Jul-25 04:33N 37°49' W 122°19'0 0.0
2015-Jul-25 03:33N 37°49' W 122°19'0 0.0
2015-Jul-25 02:33N 37°49' W 122°19'0 0.0
2015-Jul-25 01:33N 37°49' W 122°19'0 0.2
2015-Jul-25 00:33N 37°49' W 122°19'1 1.3
2015-Jul-24 23:33N 37°49' W 122°20'1 1.5
2015-Jul-24 22:34N 37°49' W 122°19'0 0.0
2015-Jul-24 21:33N 37°49' W 122°19'0 0.0
2015-Jul-24 20:33N 37°49' W 122°19'0 0.0
2015-Jul-24 19:33N 37°49' W 122°19'0 0.0
2015-Jul-24 18:33N 37°49' W 122°19'0 0.0
2015-Jul-24 17:33N 37°49' W 122°19'5 4.6
2015-Jul-24 16:33N 37°52' W 122°24'9 9.0
2015-Jul-24 15:31N 38°01' W 122°23'8 2.5
2015-Jul-24 12:06N 38°04' W 122°13'610.1
2015-Jul-24 11:33N 38°02' W 122°20'9 8.6
2015-Jul-24 10:33N 37°54' W 122°24'0 0.4
2015-Jul-24 09:33N 37°54' W 122°23'0 0.0
2015-Jul-24 08:33N 37°54' W 122°23'0 0.0
2015-Jul-24 07:33N 37°54' W 122°23'0 0.0
2015-Jul-24 06:33N 37°54' W 122°23'0 0.0
2015-Jul-24 05:33N 37°54' W 122°23'0 0.0
2015-Jul-24 04:33N 37°54' W 122°23'0 0.0
2015-Jul-24 03:33N 37°54' W 122°23'0 0.0
2015-Jul-24 02:33N 37°54' W 122°23'1 1.1
2015-Jul-24 01:33N 37°54' W 122°22'3 2.8
2015-Jul-24 00:33N 37°54' W 122°25'3 2.8
2015-Jul-23 23:33N 37°54' W 122°22'0 0.1
2015-Jul-23 22:33N 37°55' W 122°22'1 1.0
2015-Jul-23 21:33N 37°54' W 122°23'0 0.0
2015-Jul-23 20:33N 37°54' W 122°23'0 0.0
2015-Jul-23 19:33N 37°54' W 122°23'0 0.0
2015-Jul-23 18:33N 37°54' W 122°23'0 0.0
2015-Jul-23 17:33N 37°54' W 122°23'1 1.4
2015-Jul-23 16:33N 37°55' W 122°25'3 2.5
2015-Jul-23 15:33N 37°53' W 122°24'5 5.4
2015-Jul-23 14:33N 37°49' W 122°19'3 2.9
2015-Jul-23 13:33N 37°47' W 122°23'1 0.8
2015-Jul-23 12:33N 37°48' W 122°22'1 1.4
2015-Jul-23 11:33N 37°49' W 122°20'0 0.2
2015-Jul-23 10:33N 37°49' W 122°20'1 1.3
2015-Jul-23 09:33N 37°49' W 122°19'0 0.0
2015-Jul-23 08:33N 37°49' W 122°19'0 0.0
2015-Jul-23 07:33N 37°49' W 122°19'0 0.0
2015-Jul-23 06:33N 37°49' W 122°19'0 0.0
2015-Jul-23 05:33N 37°49' W 122°19'0 0.0
2015-Jul-23 04:33N 37°49' W 122°19'0 0.0
2015-Jul-23 03:33N 37°49' W 122°19'0 0.0
2015-Jul-23 02:33N 37°49' W 122°19'0 0.0
2015-Jul-23 01:33N 37°49' W 122°19'0 0.4
2015-Jul-23 00:33N 37°49' W 122°19'0 0.4
2015-Jul-22 23:33N 37°49' W 122°19'0 0.0
2015-Jul-22 22:34N 37°49' W 122°19'0 0.0
2015-Jul-22 21:33N 37°49' W 122°19'0 0.0
2015-Jul-22 20:34N 37°49' W 122°19'0 0.0
2015-Jul-22 19:34N 37°49' W 122°19'0 0.0
2015-Jul-22 18:33N 37°49' W 122°19'0 0.0
2015-Jul-22 17:34N 37°49' W 122°19'0 0.0
2015-Jul-22 16:34N 37°49' W 122°19'0 0.0
2015-Jul-22 15:33N 37°49' W 122°19'2 1.7
2015-Jul-22 14:34N 37°48' W 122°19'1 1.1
2015-Jul-22 13:34N 37°48' W 122°17'1 0.6
2015-Jul-22 12:34N 37°48' W 122°18'1 0.9
2015-Jul-22 11:33N 37°48' W 122°19'2 1.6
2015-Jul-22 10:33N 37°49' W 122°19'0 0.0
2015-Jul-22 09:33N 37°49' W 122°19'0 0.0
2015-Jul-22 08:33N 37°49' W 122°19'0 0.0
2015-Jul-22 07:33N 37°49' W 122°19'4 4.4
2015-Jul-22 06:33N 37°52' W 122°23'9 9.4
2015-Jul-22 05:34N 38°01' W 122°23'8 8.5
2015-Jul-22 04:34N 38°03' W 122°13'0 0.0
2015-Jul-22 03:33N 38°03' W 122°13'1 0.7
2015-Jul-22 02:33N 38°04' W 122°14'1 0.1
2015-Jul-21 19:23N 38°04' W 122°13'1 0.2
2015-Jul-21 13:18N 38°03' W 122°15'0 0.0
2015-Jul-21 12:33N 38°03' W 122°15'0 0.0
2015-Jul-21 11:34N 38°03' W 122°15'0 0.0
2015-Jul-21 10:29N 38°03' W 122°15'0 0.0
2015-Jul-21 09:33N 38°03' W 122°15'1 1.3
2015-Jul-21 08:33N 38°04' W 122°13'1111.0
2015-Jul-21 07:33N 37°59' W 122°25'1110.6
2015-Jul-21 06:34N 37°49' W 122°21'2 2.1
2015-Jul-21 05:34N 37°49' W 122°19'0 0.0
2015-Jul-21 04:33N 37°49' W 122°19'0 0.0
2015-Jul-21 03:34N 37°49' W 122°19'1 1.0
2015-Jul-21 02:33N 37°49' W 122°20'1 1.0
2015-Jul-21 01:34N 37°49' W 122°19'0 0.0
2015-Jul-21 00:34N 37°49' W 122°19'2 1.8
2015-Jul-20 23:34N 37°48' W 122°18'2 1.8
2015-Jul-20 22:33N 37°48' W 122°20'2 1.7
2015-Jul-20 21:34N 37°49' W 122°19'0 0.0
2015-Jul-20 20:33N 37°49' W 122°19'0 0.0
2015-Jul-20 19:33N 37°49' W 122°19'0 0.0
2015-Jul-20 18:33N 37°49' W 122°19'0 0.0
2015-Jul-20 17:33N 37°49' W 122°19'0 0.0
2015-Jul-20 16:33N 37°49' W 122°19'0 0.0
2015-Jul-20 15:33N 37°49' W 122°19'0 0.0
2015-Jul-20 14:34N 37°49' W 122°19'0 0.0
2015-Jul-20 13:33N 37°49' W 122°19'0 0.0
2015-Jul-20 12:33N 37°49' W 122°19'0 0.0
2015-Jul-20 11:33N 37°49' W 122°19'0 0.0
2015-Jul-20 10:34N 37°49' W 122°19'0 0.0
2015-Jul-20 09:34N 37°49' W 122°19'0 0.0
2015-Jul-20 08:33N 37°49' W 122°19'0 0.0
2015-Jul-20 07:33N 37°49' W 122°19'0 0.0
2015-Jul-20 06:33N 37°49' W 122°19'0 0.0
2015-Jul-20 05:33N 37°49' W 122°19'0 0.0
2015-Jul-20 04:33N 37°49' W 122°19'0 0.0
2015-Jul-20 03:33N 37°49' W 122°19'0 0.0
2015-Jul-20 02:33N 37°49' W 122°19'2 2.0
2015-Jul-20 01:34N 37°49' W 122°21'5 5.4
2015-Jul-20 00:34N 37°54' W 122°22'2 2.2
2015-Jul-19 23:34N 37°55' W 122°24'0 0.4
2015-Jul-19 22:33N 37°55' W 122°25'9 8.1
2015-Jul-19 21:27N 38°03' W 122°19'8 0.8
2015-Jul-19 11:25N 38°02' W 122°08'  

Dump ship's entire track history